Time;durP1;ratioP1;P1;durP2;ratioP2;P2;SDS_P1;SDS_P2;PMS_P1;PMS_P2;Temp;Humidity;BMP_temperature;BMP_pressure;BME280_temperature;BME280_humidity;BME280_pressure;Samples;Min_cycle;Max_cycle;Signal;HPM_P1;HPM_P2
2023/07/14 00:01:48;;;;;;;10.18;9.88;;;18.60;99.90;;;;;;5137898;28;20289;-78
2023/07/14 00:04:18;;;;;;;10.20;9.90;;;18.60;99.90;;;;;;5133905;27;20224;-79
2023/07/14 00:06:47;;;;;;;10.20;9.90;;;18.60;99.90;;;;;;5128462;28;20316;-80
2023/07/14 00:09:24;;;;;;;10.20;9.90;;;18.50;99.90;;;;;;5123961;28;20267;-79
2023/07/14 00:11:51;;;;;;;10.18;9.88;;;18.50;99.90;;;;;;5124095;28;20239;-80
2023/07/14 00:14:19;;;;;;;10.13;9.82;;;18.40;99.90;;;;;;5124438;28;20233;-80
2023/07/14 00:16:46;;;;;;;10.50;10.20;;;18.40;99.90;;;;;;5123638;28;20228;-80
2023/07/14 00:19:16;;;;;;;10.38;10.07;;;18.40;99.90;;;;;;5124063;28;20305;-80
2023/07/14 00:21:46;;;;;;;10.35;10.05;;;18.40;99.90;;;;;;5124511;28;20247;-80
2023/07/14 00:24:16;;;;;;;10.30;10.00;;;18.30;99.90;;;;;;5127133;28;20213;-80
2023/07/14 00:26:48;;;;;;;10.50;10.20;;;18.30;99.90;;;;;;5124951;28;20220;-80
2023/07/14 00:29:35;;;;;;;10.65;10.35;;;18.20;99.90;;;;;;5124606;28;20240;-80
2023/07/14 00:32:11;;;;;;;10.60;10.30;;;18.10;99.90;;;;;;5125029;28;20237;-79
2023/07/14 00:34:38;;;;;;;10.35;10.05;;;18.10;99.90;;;;;;5123914;28;20216;-79
2023/07/14 00:37:07;;;;;;;10.40;10.10;;;18.00;99.90;;;;;;5124344;28;20263;-81
2023/07/14 00:39:35;;;;;;;10.40;10.10;;;18.00;99.90;;;;;;5124689;28;20292;-80
2023/07/14 00:42:07;;;;;;;10.27;9.98;;;17.90;99.90;;;;;;5124263;28;20243;-80
2023/07/14 00:44:35;;;;;;;10.38;10.07;;;17.90;99.90;;;;;;5124714;28;20274;-80
2023/07/14 00:47:03;;;;;;;10.35;10.05;;;17.80;99.90;;;;;;5124925;28;20236;-80
2023/07/14 00:49:41;;;;;;;10.30;10.00;;;17.80;99.90;;;;;;5124936;28;20236;-80
2023/07/14 00:52:18;;;;;;;10.27;9.98;;;17.70;99.90;;;;;;5126866;28;20224;-80
2023/07/14 00:54:52;;;;;;;10.60;10.30;;;17.70;99.90;;;;;;5128274;27;20227;-80
2023/07/14 00:57:22;;;;;;;10.38;10.07;;;17.60;99.90;;;;;;5131263;28;20225;-80
2023/07/14 00:59:52;;;;;;;10.45;10.15;;;17.60;99.90;;;;;;5124516;28;20248;-80
2023/07/14 01:02:22;;;;;;;10.50;10.20;;;17.50;99.90;;;;;;5124853;28;20343;-80
2023/07/14 01:04:54;;;;;;;10.20;9.90;;;17.40;99.90;;;;;;5123954;28;20282;-80
2023/07/14 01:07:31;;;;;;;10.52;10.23;;;17.40;99.90;;;;;;5123317;28;20229;-79
2023/07/14 01:10:00;;;;;;;10.40;10.10;;;17.30;99.90;;;;;;5123862;28;20235;-80
2023/07/14 01:12:31;;;;;;;10.57;10.27;;;17.20;99.90;;;;;;5123024;28;20232;-80
2023/07/14 01:14:59;;;;;;;10.60;10.30;;;17.20;99.90;;;;;;5123291;28;20229;-79
2023/07/14 01:17:27;;;;;;;10.52;10.23;;;17.10;99.90;;;;;;5123546;28;20237;-79
2023/07/14 01:19:58;;;;;;;10.50;10.20;;;17.10;99.90;;;;;;5123777;28;20232;-79
2023/07/14 01:22:37;;;;;;;10.48;10.18;;;17.00;99.90;;;;;;5123412;28;20266;-80
2023/07/14 01:25:16;;;;;;;10.65;10.35;;;16.90;99.90;;;;;;5123966;28;20235;-80
2023/07/14 01:27:46;;;;;;;10.32;10.02;;;16.80;99.90;;;;;;5123858;28;20235;-81
2023/07/14 01:30:14;;;;;;;10.50;10.20;;;16.80;99.90;;;;;;5123072;28;20224;-80
2023/07/14 01:32:47;;;;;;;10.40;10.10;;;16.80;99.90;;;;;;5123520;28;20229;-80
2023/07/14 01:35:17;;;;;;;10.30;10.00;;;16.80;99.90;;;;;;5123731;28;20217;-79
2023/07/14 01:37:45;;;;;;;10.27;9.98;;;16.80;99.90;;;;;;5123398;28;20255;-80
2023/07/14 01:40:17;;;;;;;10.23;9.93;;;16.90;99.90;;;;;;5123544;28;20231;-80
2023/07/14 01:42:52;;;;;;;10.50;10.20;;;16.80;99.90;;;;;;5124910;28;20224;-80
2023/07/14 01:45:21;;;;;;;10.55;10.25;;;16.90;99.90;;;;;;5129458;28;20216;-80
2023/07/14 01:48:02;;;;;;;10.38;10.07;;;16.90;99.90;;;;;;5136960;28;20249;-80
2023/07/14 01:50:37;;;;;;;10.60;10.30;;;16.80;99.90;;;;;;5136262;28;20225;-79
2023/07/14 01:53:11;;;;;;;10.60;10.30;;;16.80;99.90;;;;;;5137979;28;20269;-80
2023/07/14 01:55:42;;;;;;;10.48;10.18;;;16.80;99.90;;;;;;5138180;28;20256;-79
2023/07/14 01:58:16;;;;;;;10.52;10.23;;;16.80;99.90;;;;;;5130348;28;20253;-81
2023/07/14 02:00:46;;;;;;;10.45;10.15;;;16.80;99.90;;;;;;5132649;28;20236;-80
2023/07/14 02:03:18;;;;;;;10.32;10.02;;;16.80;99.90;;;;;;5135171;28;20225;-79
2023/07/14 02:05:46;;;;;;;10.10;9.80;;;16.70;99.90;;;;;;5134487;27;20274;-80
2023/07/14 02:08:23;;;;;;;10.38;10.07;;;16.70;99.90;;;;;;5133007;28;20232;-79
2023/07/14 02:10:50;;;;;;;10.50;10.20;;;16.70;99.90;;;;;;5129967;28;20229;-80
2023/07/14 02:13:20;;;;;;;10.57;10.27;;;16.60;99.90;;;;;;5135891;28;20236;-79
2023/07/14 02:15:49;;;;;;;10.50;10.20;;;16.60;99.90;;;;;;5131879;28;20231;-80
2023/07/14 02:18:22;;;;;;;10.50;10.20;;;16.60;99.90;;;;;;5124485;28;20312;-80
2023/07/14 02:20:50;;;;;;;10.70;10.40;;;16.60;99.90;;;;;;5124732;28;20229;-80
2023/07/14 02:23:22;;;;;;;10.63;10.32;;;16.60;99.90;;;;;;5123983;28;20248;-79
2023/07/14 02:26:08;;;;;;;10.40;10.10;;;16.50;99.90;;;;;;5124660;28;20225;-80
2023/07/14 02:28:37;;;;;;;10.70;10.40;;;16.50;99.90;;;;;;5123545;28;20233;-80
2023/07/14 02:31:14;;;;;;;10.60;10.30;;;16.40;99.90;;;;;;5123406;28;20241;-80
2023/07/14 02:33:44;;;;;;;10.57;10.27;;;16.40;99.90;;;;;;5123446;28;20230;-79
2023/07/14 02:36:23;;;;;;;10.50;10.20;;;16.40;99.90;;;;;;5123595;28;20231;-81
2023/07/14 02:38:53;;;;;;;10.55;10.25;;;16.40;99.90;;;;;;5123814;28;20333;-80
2023/07/14 02:41:27;;;;;;;10.85;10.55;;;16.30;99.90;;;;;;5122671;28;20228;-81
2023/07/14 02:44:03;;;;;;;11.00;10.70;;;16.30;99.90;;;;;;5135919;27;20220;-79
2023/07/14 02:46:40;;;;;;;10.90;10.60;;;16.20;99.90;;;;;;5128904;27;20224;-80
2023/07/14 02:49:08;;;;;;;10.90;10.60;;;16.10;99.90;;;;;;5119492;28;20232;-80
2023/07/14 02:51:36;;;;;;;10.77;10.48;;;16.10;99.90;;;;;;5122853;28;20225;-80
2023/07/14 02:54:04;;;;;;;10.70;10.40;;;16.00;99.90;;;;;;5124172;28;20228;-80
2023/07/14 02:56:32;;;;;;;10.60;10.30;;;16.00;99.90;;;;;;5123319;28;20220;-79
2023/07/14 02:59:01;;;;;;;11.27;10.98;;;16.00;99.90;;;;;;5123812;28;20243;-80
2023/07/14 03:01:32;;;;;;;10.90;10.60;;;15.90;99.90;;;;;;5123771;28;20263;-79
2023/07/14 03:04:00;;;;;;;11.10;10.80;;;15.90;99.90;;;;;;5122044;28;20228;-80
2023/07/14 03:06:28;;;;;;;11.20;10.90;;;15.80;99.90;;;;;;5122317;28;20269;-79
2023/07/14 03:08:56;;;;;;;11.20;10.90;;;15.80;99.90;;;;;;5122079;28;20237;-82
2023/07/14 03:11:23;;;;;;;11.00;10.70;;;15.70;99.90;;;;;;5121772;28;20300;-80
2023/07/14 03:13:51;;;;;;;11.25;10.95;;;15.70;99.90;;;;;;5122082;28;20232;-80
2023/07/14 03:16:20;;;;;;;11.13;10.82;;;15.70;99.90;;;;;;5121237;28;20274;-80
2023/07/14 03:18:48;;;;;;;11.50;11.10;;;15.60;99.90;;;;;;5121576;28;20244;-80
2023/07/14 03:21:15;;;;;;;11.90;11.50;;;15.50;99.90;;;;;;5121992;28;20693;-81
2023/07/14 03:23:43;;;;;;;11.98;11.57;;;15.50;99.90;;;;;;5122028;28;20224;-80
2023/07/14 03:26:11;;;;;;;11.57;11.18;;;15.50;99.90;;;;;;5122686;28;20232;-79
2023/07/14 03:28:40;;;;;;;11.77;11.38;;;15.40;99.90;;;;;;5122415;28;20235;-79
2023/07/14 03:31:08;;;;;;;11.93;11.52;;;15.40;99.90;;;;;;5122959;28;20229;-79
2023/07/14 03:33:38;;;;;;;11.70;11.30;;;15.40;99.90;;;;;;5129462;28;20216;-79
2023/07/14 03:36:09;;;;;;;11.50;11.10;;;15.40;99.90;;;;;;5139253;27;20217;-80
2023/07/14 03:38:41;;;;;;;11.48;11.07;;;15.30;99.90;;;;;;5133590;28;20233;-79
2023/07/14 03:41:08;;;;;;;11.25;10.95;;;15.30;99.90;;;;;;5133032;28;20233;-80
2023/07/14 03:43:36;;;;;;;11.50;11.10;;;15.30;99.90;;;;;;5130546;28;20233;-79
2023/07/14 03:46:03;;;;;;;10.95;10.65;;;15.30;99.90;;;;;;5125129;28;20228;-79
2023/07/14 03:48:31;;;;;;;10.93;10.63;;;15.30;99.90;;;;;;5130863;28;20231;-79
2023/07/14 03:51:03;;;;;;;10.93;10.63;;;15.30;99.90;;;;;;5121752;28;20254;-79
2023/07/14 03:53:41;;;;;;;11.52;11.13;;;15.30;99.90;;;;;;5122663;28;20227;-79
2023/07/14 03:56:10;;;;;;;11.15;10.85;;;15.30;99.90;;;;;;5120883;28;20236;-79
2023/07/14 03:58:39;;;;;;;11.30;11.00;;;15.30;99.90;;;;;;5120393;28;20233;-78
2023/07/14 04:01:07;;;;;;;11.30;11.00;;;15.30;99.90;;;;;;5121318;28;20721;-79
2023/07/14 04:03:34;;;;;;;11.23;10.93;;;15.30;99.90;;;;;;5121519;28;20323;-79
2023/07/14 04:06:03;;;;;;;11.20;10.90;;;15.30;99.90;;;;;;5121813;28;20220;-79
2023/07/14 04:08:37;;;;;;;11.57;11.18;;;15.30;99.90;;;;;;5122603;28;20239;-80
2023/07/14 04:11:05;;;;;;;11.55;11.15;;;15.30;99.90;;;;;;5122157;28;20224;-79
2023/07/14 04:13:33;;;;;;;11.65;11.25;;;15.40;99.90;;;;;;5122878;28;20248;-78
2023/07/14 04:16:00;;;;;;;11.73;11.32;;;15.40;99.90;;;;;;5122598;28;20251;-79
2023/07/14 04:18:28;;;;;;;11.40;11.00;;;15.40;99.90;;;;;;5122727;28;20241;-79
2023/07/14 04:20:55;;;;;;;11.43;11.02;;;15.40;99.90;;;;;;5123017;28;20252;-79
2023/07/14 04:23:24;;;;;;;11.35;11.00;;;15.30;99.90;;;;;;5124732;28;20264;-79
2023/07/14 04:25:52;;;;;;;11.32;10.95;;;15.30;99.90;;;;;;5130445;28;20217;-80
2023/07/14 04:28:25;;;;;;;11.65;11.25;;;15.40;99.90;;;;;;5124036;27;20239;-79
2023/07/14 04:30:56;;;;;;;11.60;11.20;;;15.50;99.90;;;;;;5126980;28;20254;-79
2023/07/14 04:33:24;;;;;;;11.20;10.90;;;15.60;99.90;;;;;;5125897;28;20319;-79
2023/07/14 04:35:53;;;;;;;11.20;10.90;;;15.60;99.90;;;;;;5126665;28;20235;-78
2023/07/14 04:38:29;;;;;;;11.10;10.80;;;15.70;99.90;;;;;;5129936;28;20229;-79
2023/07/14 04:40:57;;;;;;;11.25;10.95;;;15.80;99.90;;;;;;5127536;28;20235;-78
2023/07/14 04:43:24;;;;;;;10.95;10.65;;;15.80;99.90;;;;;;5125729;28;20239;-79
2023/07/14 04:45:52;;;;;;;10.95;10.65;;;15.90;99.90;;;;;;5131936;28;20281;-78
2023/07/14 04:48:30;;;;;;;11.10;10.80;;;16.00;99.90;;;;;;5156379;22;20236;-86
2023/07/14 04:51:05;;;;;;;11.07;10.77;;;16.10;99.90;;;;;;5148016;27;20228;-86
2023/07/14 04:53:37;;;;;;;11.00;10.70;;;16.20;99.90;;;;;;5146473;27;20223;-86
2023/07/14 04:56:13;;;;;;;11.48;11.07;;;16.30;99.90;;;;;;5145126;27;20232;-87
2023/07/14 04:58:54;;;;;;;;;;;;;;;;;;;;;
2023/07/14 05:01:31;;;;;;;11.07;10.77;;;16.50;99.90;;;;;;5125826;28;20225;-87
2023/07/14 05:04:02;;;;;;;11.50;11.10;;;16.60;99.90;;;;;;5126545;28;20228;-87
2023/07/14 05:06:32;;;;;;;11.70;11.30;;;16.70;99.90;;;;;;5124475;28;20217;-87
2023/07/14 05:09:03;;;;;;;11.55;11.15;;;16.80;99.90;;;;;;5124315;27;20225;-87
2023/07/14 05:11:32;;;;;;;11.52;11.13;;;16.90;99.90;;;;;;5124551;28;20228;-87
2023/07/14 05:14:00;;;;;;;11.70;11.30;;;17.00;99.90;;;;;;5124341;28;20239;-87
2023/07/14 05:16:28;;;;;;;11.77;11.38;;;17.10;99.90;;;;;;5123326;28;20225;-85
2023/07/14 05:19:02;;;;;;;11.70;11.30;;;17.10;99.90;;;;;;5121785;27;20233;-86
2023/07/14 05:21:40;;;;;;;11.60;11.20;;;17.20;99.90;;;;;;5122102;28;20228;-86
2023/07/14 05:24:11;;;;;;;11.60;11.20;;;17.30;99.90;;;;;;5126502;28;20239;-87
2023/07/14 05:26:47;;;;;;;11.57;11.18;;;17.40;99.90;;;;;;5125906;28;20239;-86
2023/07/14 05:29:21;;;;;;;11.57;11.18;;;17.40;99.90;;;;;;5121406;27;20255;-86
2023/07/14 05:31:50;;;;;;;11.55;11.15;;;17.50;99.90;;;;;;5122015;28;20237;-87
2023/07/14 05:34:24;;;;;;;11.18;10.88;;;17.60;99.90;;;;;;5121150;28;20225;-87
2023/07/14 05:36:55;;;;;;;11.52;11.13;;;17.60;99.90;;;;;;5121154;28;20225;-86
2023/07/14 05:39:26;;;;;;;11.60;11.20;;;17.70;99.90;;;;;;5121285;27;20243;-86
2023/07/14 05:41:58;;;;;;;11.18;10.88;;;17.80;99.90;;;;;;5121380;28;20285;-86
2023/07/14 05:44:40;;;;;;;11.30;11.00;;;17.90;99.90;;;;;;5121142;28;20311;-86
2023/07/14 05:47:09;;;;;;;11.10;10.80;;;18.10;99.90;;;;;;5121290;28;20274;-86
2023/07/14 05:49:42;;;;;;;11.20;10.90;;;18.30;99.90;;;;;;5121807;27;20263;-86
2023/07/14 05:52:14;;;;;;;11.18;10.88;;;18.40;99.90;;;;;;5120949;28;20267;-86
2023/07/14 05:54:55;;;;;;;11.23;10.93;;;18.50;99.90;;;;;;5132461;27;20224;-86
2023/07/14 05:57:36;;;;;;;11.35;11.05;;;18.60;99.90;;;;;;5141556;27;20291;-85
2023/07/14 06:00:13;;;;;;;11.10;10.80;;;18.80;99.90;;;;;;5129802;28;20228;-87
2023/07/14 06:02:43;;;;;;;11.25;10.95;;;19.10;99.90;;;;;;5121883;28;20228;-87
2023/07/14 06:05:23;;;;;;;11.32;11.02;;;19.30;99.90;;;;;;5121119;28;20259;-87
2023/07/14 06:07:59;;;;;;;11.18;10.88;;;19.60;99.90;;;;;;5120470;27;20213;-87
2023/07/14 06:11:00;;;;;;;11.05;10.75;;;19.80;99.90;;;;;;5120716;28;20260;-87
2023/07/14 06:13:36;;;;;;;10.90;10.60;;;20.00;99.90;;;;;;5120434;28;20239;-86
2023/07/14 06:16:23;;;;;;;11.07;10.77;;;20.20;99.90;;;;;;5120248;28;20319;-87
2023/07/14 06:18:57;;;;;;;11.07;10.77;;;20.30;99.90;;;;;;5121136;27;20278;-87
2023/07/14 06:21:43;;;;;;;11.18;10.88;;;20.40;99.90;;;;;;5121423;28;20256;-87
2023/07/14 06:24:16;;;;;;;10.90;10.60;;;20.40;99.90;;;;;;5120599;28;20232;-87
2023/07/14 06:27:07;;;;;;;10.90;10.60;;;20.50;99.90;;;;;;5120691;28;20227;-86
2023/07/14 06:29:46;;;;;;;10.98;10.68;;;20.60;99.90;;;;;;5120373;27;20228;-87
2023/07/14 06:32:40;;;;;;;11.18;10.88;;;20.70;99.90;;;;;;5121036;28;20228;-87
2023/07/14 06:35:29;;;;;;;11.02;10.73;;;20.90;99.90;;;;;;5120259;28;20311;-87
2023/07/14 06:38:03;;;;;;;11.00;10.70;;;21.10;99.90;;;;;;5119996;27;20331;-85
2023/07/14 06:40:37;;;;;;;10.98;10.68;;;21.20;99.90;;;;;;5120111;28;20278;-85
2023/07/14 06:43:16;;;;;;;10.80;10.50;;;21.40;99.90;;;;;;5120313;28;20240;-84
2023/07/14 06:46:00;;;;;;;10.95;10.65;;;21.50;99.90;;;;;;5120919;28;20250;-85
2023/07/14 06:48:48;;;;;;;10.73;10.43;;;21.60;99.90;;;;;;5119949;27;20331;-85
2023/07/14 06:51:32;;;;;;;10.70;10.40;;;21.70;99.90;;;;;;5119441;27;20256;-84
2023/07/14 06:54:17;;;;;;;10.65;10.35;;;21.80;99.90;;;;;;5120918;28;20241;-85
2023/07/14 06:57:04;;;;;;;10.50;10.20;;;21.80;99.90;;;;;;5120350;28;20256;-85
2023/07/14 06:59:42;;;;;;;10.60;10.30;;;21.80;99.90;;;;;;5120040;27;20323;-86
2023/07/14 07:02:26;;;;;;;10.38;10.07;;;21.80;99.90;;;;;;5119863;28;20229;-85
2023/07/14 07:04:56;;;;;;;10.40;10.10;;;21.90;99.90;;;;;;5120032;28;20236;-85
2023/07/14 07:07:41;;;;;;;10.10;9.80;;;21.90;99.90;;;;;;5120059;28;20243;-85
2023/07/14 07:10:34;;;;;;;10.10;9.80;;;21.90;99.90;;;;;;5119330;28;20228;-85
2023/07/14 07:13:38;;;;;;;10.30;10.00;;;21.90;99.90;;;;;;5119880;28;20300;-85
2023/07/14 07:16:51;;;;;;;10.50;10.20;;;22.00;99.90;;;;;;5112781;28;20235;-85
2023/07/14 07:19:35;;;;;;;10.05;9.75;;;22.10;99.90;;;;;;4996400;28;20383;-85
2023/07/14 07:22:24;;;;;;;;;;;;;;;;;;;;;
2023/07/14 07:24:59;;;;;;;10.50;10.20;;;22.20;99.90;;;;;;5014946;28;20729;-84
2023/07/14 07:27:53;;;;;;;10.30;10.00;;;22.10;99.90;;;;;;5121460;28;20232;-84
2023/07/14 07:30:26;;;;;;;10.40;10.10;;;22.10;99.90;;;;;;5126188;28;20249;-86
2023/07/14 07:33:13;;;;;;;10.57;10.27;;;22.20;99.90;;;;;;5121023;28;20236;-84
2023/07/14 07:36:14;;;;;;;10.38;10.07;;;22.20;99.90;;;;;;5119998;28;20278;-84
2023/07/14 07:39:12;;;;;;;10.35;10.05;;;22.20;99.90;;;;;;5119979;28;20233;-85
2023/07/14 07:42:11;;;;;;;;;;;;;;;;;;;;;
2023/07/14 07:45:03;;;;;;;10.38;10.07;;;22.40;99.90;;;;;;5139924;28;20217;-84
2023/07/14 07:48:36;;;;;;;10.85;10.55;;;22.60;99.90;;;;;;5129889;27;20225;-85
2023/07/14 07:51:44;;;;;;;10.60;10.30;;;22.80;99.90;;;;;;5130962;28;20239;-85
2023/07/14 07:57:24;;;;;;;10.77;10.48;;;23.30;99.90;;;;;;5119549;28;20298;-85
2023/07/14 08:00:15;;;;;;;10.30;10.00;;;23.60;99.90;;;;;;5119424;27;20221;-85
2023/07/14 08:03:00;;;;;;;;;;;;;;;;;;;;;
2023/07/14 08:05:52;;;;;;;10.40;10.10;;;24.00;99.90;;;;;;5121016;28;20278;-85
2023/07/14 08:08:59;;;;;;;10.43;10.13;;;24.30;99.90;;;;;;5124037;27;20255;-85
2023/07/14 08:11:39;;;;;;;10.70;10.40;;;24.50;99.90;;;;;;5124433;28;21091;-85
2023/07/14 08:15:07;;;;;;;;;;;;;;;;;;;;;
2023/07/14 08:18:03;;;;;;;10.70;10.40;;;24.50;99.90;;;;;;5122189;27;20233;-85
2023/07/14 08:20:58;;;;;;;10.43;10.13;;;24.40;99.90;;;;;;5122362;28;20225;-84
2023/07/14 08:23:44;;;;;;;10.70;10.40;;;24.40;99.90;;;;;;5122595;28;20257;-83
2023/07/14 08:26:25;;;;;;;10.88;10.57;;;24.30;99.90;;;;;;5122327;28;20229;-86
2023/07/14 08:36:04;;;;;;;;;;;;;;;;;;;;;
2023/07/14 08:39:10;;;;;;;11.10;10.80;;;24.60;99.90;;;;;;5125918;27;20236;-86
2023/07/14 08:42:23;;;;;;;10.90;10.60;;;24.70;99.90;;;;;;5121878;28;20245;-85
2023/07/14 08:45:39;;;;;;;10.88;10.57;;;24.90;99.90;;;;;;5121824;28;20439;-85
2023/07/14 08:48:45;;;;;;;11.15;10.85;;;25.30;99.90;;;;;;5122952;27;20245;-86
2023/07/14 08:52:04;;;;;;;;;;;;;;;;;;;;;
2023/07/14 08:55:05;;;;;;;10.93;10.63;;;25.10;99.90;;;;;;5121762;28;20232;-84
2023/07/14 09:01:27;;;;;;;10.68;10.38;;;25.30;99.90;;;;;;5085682;28;20286;-85
2023/07/14 09:04:46;;;;;;;10.85;10.55;;;25.60;99.90;;;;;;5121261;28;20239;-85
2023/07/14 09:07:59;;;;;;;;;;;;;;;;;;;;;
2023/07/14 09:11:15;;;;;;;10.68;10.38;;;25.90;99.90;;;;;;5121161;28;20259;-85
2023/07/14 09:14:37;;;;;;;10.98;10.68;;;26.00;99.90;;;;;;5121439;28;20259;-84
2023/07/14 09:17:41;;;;;;;;;;;;;;;;;;;;;
2023/07/14 09:21:00;;;;;;;10.93;10.63;;;26.50;99.90;;;;;;5121481;28;20278;-84
2023/07/14 09:27:38;;;;;;;10.68;10.38;;;26.60;99.90;;;;;;5119596;28;20240;-84
2023/07/14 09:31:06;;;;;;;10.70;10.40;;;26.70;99.90;;;;;;5137012;28;20292;-84
2023/07/14 09:41:16;;;;;;;;;;;;;;;;;;;;;
2023/07/14 09:44:24;;;;;;;11.02;10.73;;;27.30;99.90;;;;;;5122455;28;20235;-84
2023/07/14 09:54:15;;;;;;;11.15;10.85;;;27.60;99.90;;;;;;5106099;28;20229;-84
2023/07/14 09:57:32;;;;;;;11.10;10.80;;;28.00;99.90;;;;;;5119745;28;20236;-85
2023/07/14 10:00:32;;;;;;;10.90;10.60;;;28.30;99.90;;;;;;5120987;28;20256;-85
2023/07/14 10:03:38;;;;;;;10.85;10.55;;;28.20;99.90;;;;;;5120519;28;20239;-84
2023/07/14 10:06:56;;;;;;;11.05;10.75;;;28.10;99.90;;;;;;5120434;28;20235;-85
2023/07/14 10:16:47;;;;;;;11.10;10.80;;;28.60;99.90;;;;;;5120228;28;20232;-84
2023/07/14 10:26:18;;;;;;;11.13;10.82;;;28.80;99.90;;;;;;5121769;28;20229;-85
2023/07/14 10:29:18;;;;;;;11.10;10.80;;;28.90;99.90;;;;;;5123089;27;20239;-85
2023/07/14 10:32:40;;;;;;;11.02;10.73;;;28.80;99.90;;;;;;5120300;28;20235;-84
2023/07/14 10:39:24;;;;;;;11.40;11.10;;;28.60;99.90;;;;;;5112835;27;20237;-84
2023/07/14 10:42:54;;;;;;;11.50;11.10;;;28.90;99.90;;;;;;5119822;28;20225;-85
2023/07/14 10:45:43;;;;;;;11.30;11.00;;;29.00;99.90;;;;;;5015413;28;20378;-85
2023/07/14 10:48:19;;;;;;;11.50;11.15;;;29.40;99.90;;;;;;5053343;22;20243;-78
2023/07/14 10:50:57;;;;;;;11.35;11.05;;;29.50;99.90;;;;;;5142853;27;20266;-78
2023/07/14 10:53:31;;;;;;;11.00;10.70;;;29.50;99.90;;;;;;5142486;27;20237;-79
2023/07/14 10:56:04;;;;;;;10.88;10.57;;;29.40;99.90;;;;;;5143834;27;20277;-79
2023/07/14 10:58:41;;;;;;;10.93;10.63;;;29.40;99.90;;;;;;5143563;27;20324;-78
2023/07/14 11:01:18;;;;;;;10.93;10.63;;;29.40;99.90;;;;;;5126624;28;20279;-79
2023/07/14 11:03:54;;;;;;;10.85;10.55;;;29.70;99.90;;;;;;5123562;28;20232;-79
2023/07/14 11:06:28;;;;;;;11.27;10.98;;;29.80;99.90;;;;;;5122144;28;20219;-79
2023/07/14 11:08:58;;;;;;;11.30;11.00;;;29.70;99.90;;;;;;5122097;27;20233;-79
2023/07/14 11:11:37;;;;;;;11.20;10.90;;;29.90;99.90;;;;;;5121861;28;20255;-79
2023/07/14 11:14:24;;;;;;;11.50;11.20;;;30.10;99.90;;;;;;5124810;28;20319;-79
2023/07/14 11:17:00;;;;;;;11.10;10.80;;;30.00;99.90;;;;;;5124601;28;20228;-79
2023/07/14 11:19:53;;;;;;;11.30;11.00;;;29.90;99.90;;;;;;5123955;28;20262;-79
2023/07/14 11:22:52;;;;;;;11.15;10.85;;;29.60;99.90;;;;;;5125069;28;20240;-79
2023/07/14 11:25:24;;;;;;;11.25;10.95;;;29.60;99.90;;;;;;5122612;28;20241;-79
2023/07/14 11:28:02;;;;;;;11.40;11.10;;;29.40;99.90;;;;;;5125490;28;20213;-80
2023/07/14 11:30:35;;;;;;;11.45;11.15;;;29.50;99.90;;;;;;5125636;28;20236;-79
2023/07/14 11:33:14;;;;;;;11.35;11.05;;;29.70;99.90;;;;;;5128558;28;20295;-80
2023/07/14 11:35:54;;;;;;;11.80;11.40;;;29.90;99.90;;;;;;5127607;28;20275;-79
2023/07/14 11:38:37;;;;;;;11.57;11.27;;;30.00;99.90;;;;;;5125668;27;20225;-79
2023/07/14 11:41:05;;;;;;;11.65;11.32;;;30.30;99.90;;;;;;5127715;28;20232;-79
2023/07/14 11:43:34;;;;;;;11.65;11.35;;;30.70;99.90;;;;;;5132377;28;20240;-79
2023/07/14 11:46:04;;;;;;;11.50;11.20;;;31.10;99.90;;;;;;5135302;28;20224;-79
2023/07/14 11:48:38;;;;;;;11.27;10.98;;;31.40;99.90;;;;;;5135467;28;20216;-79
2023/07/14 11:51:16;;;;;;;11.77;11.38;;;31.40;99.90;;;;;;5135982;28;20231;-80
2023/07/14 11:54:06;;;;;;;11.80;11.40;;;31.10;99.90;;;;;;5136124;28;20242;-79
2023/07/14 11:56:40;;;;;;;11.48;11.18;;;30.80;99.90;;;;;;5135094;28;20224;-79
2023/07/14 11:59:22;;;;;;;10.85;10.55;;;30.40;99.90;;;;;;5132480;27;20275;-80
2023/07/14 12:01:53;;;;;;;10.60;10.30;;;30.00;99.90;;;;;;5133433;28;20229;-80
2023/07/14 12:04:30;;;;;;;10.90;10.60;;;29.80;99.90;;;;;;5135168;28;20233;-80
2023/07/14 12:07:20;;;;;;;10.57;10.27;;;29.80;99.90;;;;;;5131029;28;20246;-79
2023/07/14 12:10:00;;;;;;;10.80;10.50;;;29.50;99.90;;;;;;5135131;27;20247;-79
2023/07/14 12:12:28;;;;;;;10.70;10.40;;;29.60;99.90;;;;;;5125984;28;20307;-81
2023/07/14 12:14:56;;;;;;;10.82;10.52;;;29.70;99.90;;;;;;5121658;28;20232;-80
2023/07/14 12:17:48;;;;;;;11.07;10.77;;;29.90;99.90;;;;;;5118952;28;20236;-80
2023/07/14 12:20:29;;;;;;;11.32;11.02;;;30.20;99.90;;;;;;5110383;28;20232;-79
2023/07/14 12:23:22;;;;;;;11.43;11.13;;;30.40;99.90;;;;;;5119339;28;20236;-79
2023/07/14 12:25:57;;;;;;;11.02;10.73;;;30.70;99.90;;;;;;5124042;28;20319;-79
2023/07/14 12:28:30;;;;;;;11.30;11.00;;;30.90;99.90;;;;;;5122295;28;20243;-79
2023/07/14 12:31:03;;;;;;;11.60;11.30;;;30.90;99.90;;;;;;5121462;28;20225;-79
2023/07/14 12:33:30;;;;;;;11.50;11.20;;;30.80;99.90;;;;;;5121324;28;20229;-79
2023/07/14 12:36:05;;;;;;;11.27;10.98;;;30.70;99.90;;;;;;5120927;28;20255;-79
2023/07/14 12:38:35;;;;;;;11.05;10.75;;;30.70;99.90;;;;;;5120567;27;20627;-79
2023/07/14 12:41:06;;;;;;;10.90;10.60;;;30.60;99.90;;;;;;5124836;27;20244;-79
2023/07/14 12:43:37;;;;;;;11.05;10.75;;;30.80;99.90;;;;;;5120629;28;20251;-79
2023/07/14 12:46:16;;;;;;;11.07;10.77;;;31.30;99.90;;;;;;5120163;28;20245;-81
2023/07/14 12:48:44;;;;;;;11.07;10.77;;;31.70;99.90;;;;;;5119807;27;20247;-79
2023/07/14 12:51:19;;;;;;;11.07;10.77;;;31.70;99.90;;;;;;5122801;28;20225;-80
2023/07/14 12:53:58;;;;;;;11.30;11.00;;;31.60;99.90;;;;;;5123592;28;20228;-79
2023/07/14 12:56:29;;;;;;;11.40;11.10;;;31.70;99.90;;;;;;5124764;28;20229;-79
2023/07/14 12:58:57;;;;;;;10.93;10.63;;;31.60;99.90;;;;;;5124248;28;20290;-79
2023/07/14 13:01:25;;;;;;;11.00;10.70;;;31.40;99.90;;;;;;5123327;28;20231;-79
2023/07/14 13:03:52;;;;;;;11.20;10.90;;;31.40;99.90;;;;;;5123808;28;20332;-79
2023/07/14 13:06:24;;;;;;;10.90;10.60;;;31.40;99.90;;;;;;5123813;28;20275;-79
2023/07/14 13:08:58;;;;;;;10.85;10.55;;;31.40;99.90;;;;;;5124539;27;20232;-79
2023/07/14 13:11:28;;;;;;;10.38;10.07;;;31.30;99.90;;;;;;5124242;28;20221;-79
2023/07/14 13:13:57;;;;;;;10.70;10.40;;;31.30;99.90;;;;;;5129634;28;20244;-79
2023/07/14 13:16:34;;;;;;;10.30;10.00;;;31.40;99.90;;;;;;5132935;28;20346;-79
2023/07/14 13:19:04;;;;;;;10.40;10.10;;;31.40;99.90;;;;;;5136128;27;20228;-78
2023/07/14 13:21:40;;;;;;;10.32;10.02;;;31.50;99.90;;;;;;5128037;28;20239;-80
2023/07/14 13:24:16;;;;;;;10.30;10.00;;;31.60;99.90;;;;;;5125165;28;20381;-79
2023/07/14 13:26:52;;;;;;;10.30;10.00;;;31.60;99.90;;;;;;5124085;28;20225;-79
2023/07/14 13:29:25;;;;;;;10.07;9.77;;;31.70;99.90;;;;;;5123739;27;20224;-79
2023/07/14 13:31:56;;;;;;;10.90;10.60;;;31.60;99.90;;;;;;5123805;28;20225;-80
2023/07/14 13:34:29;;;;;;;10.70;10.40;;;31.50;99.90;;;;;;5124313;28;20226;-79
2023/07/14 13:36:57;;;;;;;10.80;10.50;;;31.30;99.90;;;;;;5124620;28;20237;-79
2023/07/14 13:39:30;;;;;;;10.90;10.60;;;31.00;99.90;;;;;;5122998;27;20237;-79
2023/07/14 13:42:00;;;;;;;10.80;10.50;;;30.90;99.90;;;;;;5122446;28;20228;-78
2023/07/14 13:44:37;;;;;;;10.80;10.50;;;30.90;99.90;;;;;;5123897;28;20232;-79
2023/07/14 13:47:15;;;;;;;10.70;10.40;;;31.10;99.90;;;;;;5123286;28;20228;-80
2023/07/14 13:49:43;;;;;;;11.20;10.90;;;31.40;99.90;;;;;;5121930;28;20248;-79
2023/07/14 13:52:16;;;;;;;10.93;10.63;;;31.50;99.90;;;;;;5122472;28;20224;-79
2023/07/14 13:54:48;;;;;;;11.10;10.80;;;31.60;99.90;;;;;;5123340;28;20232;-79
2023/07/14 13:57:16;;;;;;;10.80;10.50;;;31.90;99.90;;;;;;5123564;28;20221;-79
2023/07/14 13:59:46;;;;;;;10.98;10.68;;;31.90;99.90;;;;;;5122944;27;20237;-79
2023/07/14 14:02:25;;;;;;;10.63;10.32;;;31.60;99.90;;;;;;5122670;27;20217;-79
2023/07/14 14:04:54;;;;;;;10.73;10.43;;;31.40;99.90;;;;;;5123435;28;20323;-79
2023/07/14 14:07:23;;;;;;;10.35;10.05;;;31.40;99.90;;;;;;5131047;28;20232;-79
2023/07/14 14:09:52;;;;;;;10.10;9.80;;;31.20;99.90;;;;;;5134275;27;20224;-79
2023/07/14 14:12:20;;;;;;;10.07;9.77;;;31.10;99.90;;;;;;5129439;27;20229;-79
2023/07/14 14:14:48;;;;;;;10.13;9.82;;;31.40;99.90;;;;;;5123831;28;20235;-79
2023/07/14 14:17:34;;;;;;;10.00;9.70;;;31.50;99.90;;;;;;5123569;28;20255;-79
2023/07/14 14:20:03;;;;;;;9.82;9.52;;;31.50;99.90;;;;;;5122406;27;20229;-79
2023/07/14 14:22:32;;;;;;;10.60;10.30;;;31.90;99.90;;;;;;5122586;28;20248;-79
2023/07/14 14:25:01;;;;;;;10.75;10.45;;;32.00;99.90;;;;;;5122422;28;20297;-80
2023/07/14 14:27:28;;;;;;;10.90;10.60;;;32.10;99.90;;;;;;5122817;28;20229;-79